Time;durP1;ratioP1;P1;durP2;ratioP2;P2;SDS_P1;SDS_P2;PMS_P1;PMS_P2;Temp;Humidity;BMP_temperature;BMP_pressure;BME280_temperature;BME280_humidity;BME280_pressure;Samples;Min_cycle;Max_cycle;Signal;HPM_P1;HPM_P2
2022/11/27 00:00:55;;;;;;;;;10.00;10.00;;;;;8.40;74.54;102179.44;5079951;27;45925;-80
2022/11/27 00:03:20;;;;;;;;;4.00;4.00;;;;;8.37;74.41;102190.66;5080407;27;45378;-80
2022/11/27 00:05:56;;;;;;;;;9.50;7.25;;;;;8.31;74.73;102175.06;5097389;27;45651;-80
2022/11/27 00:08:23;;;;;;;;;5.75;5.50;;;;;8.38;74.56;102175.97;5071236;27;47423;-80
2022/11/27 00:10:49;;;;;;;;;7.50;6.00;;;;;8.42;74.59;102183.78;5077780;28;45810;-79
2022/11/27 00:13:15;;;;;;;;;5.50;5.50;;;;;8.42;74.50;102173.41;5060133;28;45384;-79
2022/11/27 00:15:40;;;;;;;;;7.00;4.75;;;;;8.42;74.41;102167.38;5059417;28;45358;-79
2022/11/27 00:18:05;;;;;;;;;5.50;4.50;;;;;8.38;74.17;102170.78;5077959;28;46193;-80
2022/11/27 00:20:31;;;;;;;;;5.50;5.00;;;;;8.41;73.99;102169.03;5077599;27;67971;-79
2022/11/27 00:22:56;;;;;;;;;7.00;5.25;;;;;8.38;74.53;102161.25;5098578;27;45348;-80
2022/11/27 00:25:21;;;;;;;;;12.25;7.25;;;;;8.25;74.23;102138.75;5098336;27;46171;-79
2022/11/27 00:27:47;;;;;;;;;5.75;4.75;;;;;8.33;74.51;102150.84;5097514;27;65152;-79
2022/11/27 00:30:12;;;;;;;;;5.50;5.50;;;;;8.28;74.81;102131.84;5097426;27;53525;-80
2022/11/27 00:32:38;;;;;;;;;8.75;5.00;;;;;8.26;74.08;102130.09;5097671;27;45282;-80
2022/11/27 00:35:03;;;;;;;;;6.00;4.50;;;;;8.23;74.77;102132.69;5097365;27;62442;-80
2022/11/27 00:37:29;;;;;;;;;11.50;5.50;;;;;8.27;74.40;102139.59;5098012;27;46564;-80
2022/11/27 00:39:54;;;;;;;;;9.00;5.00;;;;;8.23;75.04;102115.38;5097291;27;63476;-79
2022/11/27 00:42:19;;;;;;;;;5.25;5.25;;;;;8.38;74.99;102134.47;5097164;27;65032;-80
2022/11/27 00:44:45;;;;;;;;;9.00;5.00;;;;;8.37;74.62;102117.16;5078804;27;63456;-80
2022/11/27 00:47:10;;;;;;;;;5.00;5.00;;;;;8.44;74.22;102129.31;5097284;27;59092;-80
2022/11/27 00:49:36;;;;;;;;;8.75;5.00;;;;;8.44;74.18;102127.56;5097292;27;58024;-80
2022/11/27 00:52:01;;;;;;;;;2.50;2.50;;;;;8.47;74.04;102129.31;5098124;27;45252;-79
2022/11/27 00:54:26;;;;;;;;;5.75;4.50;;;;;8.35;74.10;102119.72;5097986;27;45584;-80
2022/11/27 00:56:52;;;;;;;;;6.25;5.00;;;;;8.38;74.17;102113.69;5096735;27;73060;-80
2022/11/27 00:59:17;;;;;;;;;5.00;5.00;;;;;8.30;74.18;102108.47;5096432;27;69257;-80
2022/11/27 01:01:43;;;;;;;;;11.50;5.00;;;;;8.32;74.15;102127.50;5096932;27;64921;-80
2022/11/27 01:04:12;;;;;;;;;7.75;4.50;;;;;8.21;74.47;102100.66;5097861;27;45443;-80
2022/11/27 01:06:38;;;;;;;;;10.25;4.75;;;;;8.25;74.60;102098.09;5077904;27;45405;-79
2022/11/27 01:09:04;;;;;;;;;5.00;1.00;;;;;8.23;75.07;102084.25;5078074;27;45431;-80
2022/11/27 01:11:31;;;;;;;;;6.00;5.50;;;;;8.28;74.84;102092.03;5091827;27;45252;-80
2022/11/27 01:14:00;;;;;;;;;8.00;5.00;;;;;8.21;74.55;102086.00;5058597;28;45520;-80
2022/11/27 01:16:27;;;;;;;;;5.00;2.75;;;;;8.27;74.81;102085.13;5059704;28;47540;-79
2022/11/27 01:18:56;;;;;;;;;4.25;4.00;;;;;8.32;74.59;102102.44;5077888;27;45348;-80
2022/11/27 01:21:21;;;;;;;;;8.00;5.50;;;;;8.26;74.43;102091.16;5059326;28;45386;-80
2022/11/27 01:23:48;;;;;;;;;12.25;5.25;;;;;8.14;74.21;102092.88;5077069;28;45868;-80
2022/11/27 01:26:13;;;;;;;;;10.00;7.00;;;;;8.12;74.55;102097.19;5058661;28;47598;-80
2022/11/27 01:28:39;;;;;;;;;5.00;5.00;;;;;8.11;74.40;102092.00;5058339;28;45369;-79
2022/11/27 01:31:12;;;;;;;;;8.25;5.00;;;;;8.18;74.66;102111.03;5076930;28;45367;-80
2022/11/27 01:33:37;;;;;;;;;8.00;6.00;;;;;8.10;74.88;102087.69;5058798;28;45453;-80
2022/11/27 01:36:04;;;;;;;;;8.25;5.50;;;;;8.21;74.88;102111.94;5058594;28;45499;-80
2022/11/27 01:38:30;;;;;;;;;9.75;4.00;;;;;8.22;74.19;102108.44;5076626;28;46251;-80
2022/11/27 01:41:00;;;;;;;;;6.00;5.75;;;;;8.18;74.89;102090.28;5076401;27;45336;-78
2022/11/27 01:43:58;;;;;;;;;5.00;4.00;;;;;8.21;74.89;102096.38;5058708;28;45286;-78
2022/11/27 01:46:34;;;;;;;;;5.25;4.75;;;;;8.32;74.50;102093.78;5076381;28;47301;-79
2022/11/27 01:49:39;;;;;;;;;7.75;4.50;;;;;8.24;74.18;102074.75;5058395;28;45744;-80
2022/11/27 01:52:12;;;;;;;;;8.00;4.00;;;;;8.38;74.30;102087.75;5058526;28;45423;-79
2022/11/27 01:54:47;;;;;;;;;6.75;4.00;;;;;8.36;74.09;102076.47;5058319;28;45482;-80
2022/11/27 01:57:23;;;;;;;;;5.50;5.50;;;;;8.34;74.18;102077.34;5075880;28;46354;-80
2022/11/27 01:59:50;;;;;;;;;9.25;4.25;;;;;8.44;74.21;102078.28;5076116;28;45890;-80
2022/11/27 02:02:15;;;;;;;;;6.00;6.00;;;;;8.32;73.85;102062.63;5058456;28;45399;-80
2022/11/27 02:04:41;;;;;;;;;6.75;5.00;;;;;8.31;74.12;102061.78;5075649;28;60643;-80
2022/11/27 02:07:06;;;;;;;;;14.50;4.00;;;;;8.39;74.25;102073.91;5080992;27;75044;-80
2022/11/27 02:09:31;;;;;;;;;8.50;4.00;;;;;8.37;74.00;102071.31;5095567;27;72855;-80
2022/11/27 02:12:09;;;;;;;;;9.50;6.00;;;;;8.35;73.52;102073.03;5078201;27;45403;-80
2022/11/27 02:15:08;;;;;;;;;5.75;4.50;;;;;8.27;74.21;102066.97;5096595;27;45398;-80
2022/11/27 02:17:42;;;;;;;;;1.25;1.25;;;;;8.25;73.88;102063.50;5096079;27;45443;-80
2022/11/27 02:20:29;;;;;;;;;8.50;4.75;;;;;8.21;74.23;102060.06;5077780;27;46180;-80
2022/11/27 02:23:06;;;;;;;;;8.00;2.50;;;;;8.18;74.29;102049.66;5096029;27;45398;-80
2022/11/27 02:25:39;;;;;;;;;12.50;5.50;;;;;8.16;74.10;102042.75;5096298;27;45365;-80
2022/11/27 02:28:08;;;;;;;;;6.50;6.00;;;;;8.13;74.04;102061.75;5077966;27;46112;-80
2022/11/27 02:30:37;;;;;;;;;5.75;5.00;;;;;8.11;74.35;102048.75;5096074;27;45934;-80
2022/11/27 02:33:06;;;;;;;;;6.50;2.00;;;;;8.08;74.22;102047.91;5078156;27;45426;-80
2022/11/27 02:35:40;;;;;;;;;10.25;4.25;;;;;8.10;74.21;102047.03;5078307;27;45337;-80
2022/11/27 02:38:40;;;;;;;;;5.75;5.00;;;;;8.08;74.13;102066.06;5078049;27;46058;-80
2022/11/27 02:41:24;;;;;;;;;6.00;4.00;;;;;8.06;74.24;102052.22;4995970;28;45665;-80
2022/11/27 02:43:51;;;;;;;;;4.75;4.00;;;;;8.06;74.37;102044.44;4980355;28;45385;-80
2022/11/27 02:46:17;;;;;;;;;8.50;4.00;;;;;8.09;74.40;102047.03;4996475;28;52868;-79
2022/11/27 02:48:50;;;;;;;;;7.00;5.00;;;;;8.07;74.25;102039.25;5012941;28;46422;-80
2022/11/27 02:51:20;;;;;;;;;4.00;2.50;;;;;8.05;74.35;102027.16;4996328;28;45328;-80
2022/11/27 02:53:52;;;;;;;;;5.00;4.00;;;;;8.04;74.08;102018.53;4996189;28;45422;-79
2022/11/27 02:56:21;;;;;;;;;5.00;5.00;;;;;8.04;74.13;102015.94;5013143;28;45386;-80
2022/11/27 02:58:48;;;;;;;;;4.00;4.00;;;;;7.99;74.29;102011.59;4994546;28;47123;-80
2022/11/27 03:01:14;;;;;;;;;4.75;4.00;;;;;8.07;74.74;102022.84;5012216;28;70817;-79
2022/11/27 03:03:43;;;;;;;;;8.75;5.00;;;;;8.07;74.08;102028.88;4980075;28;45330;-79
2022/11/27 03:06:11;;;;;;;;;6.75;6.00;;;;;8.08;74.49;102016.81;4979949;28;45528;-80
2022/11/27 03:08:55;;;;;;;;;8.50;5.25;;;;;8.11;74.24;102019.38;4995751;28;46461;-80
2022/11/27 03:11:21;;;;;;;;;2.00;2.00;;;;;8.08;74.50;102006.44;5010817;28;45457;-80
2022/11/27 03:13:52;;;;;;;;;5.75;2.50;;;;;8.05;74.70;102006.41;4996628;28;45368;-79
2022/11/27 03:16:27;;;;;;;;;8.00;5.00;;;;;8.09;74.14;102002.94;5041776;27;45458;-79
2022/11/27 03:19:11;;;;;;;;;0.75;0.00;;;;;8.05;74.58;101985.66;5077577;27;45707;-80
2022/11/27 03:21:39;;;;;;;;;8.25;4.25;;;;;8.09;74.75;101990.00;5077677;27;45709;-80
2022/11/27 03:24:06;;;;;;;;;6.00;4.00;;;;;8.04;74.38;101979.63;5111431;27;45362;-81
2022/11/27 03:26:32;;;;;;;;;2.00;2.00;;;;;8.08;74.51;101977.91;5095605;27;45552;-80
2022/11/27 03:28:59;;;;;;;;;5.50;2.00;;;;;8.02;74.45;101970.09;5076458;27;73296;-80
2022/11/27 03:31:24;;;;;;;;;4.00;2.00;;;;;8.06;74.50;101969.22;5061489;27;45337;-80
2022/11/27 03:33:50;;;;;;;;;5.75;4.00;;;;;8.05;74.64;101964.91;5099218;27;45427;-80
2022/11/27 03:36:17;;;;;;;;;5.00;5.00;;;;;8.09;74.67;101970.09;5080135;27;66308;-80
2022/11/27 03:38:44;;;;;;;;;5.50;2.00;;;;;8.12;74.59;101961.47;5098622;27;47245;-80
2022/11/27 03:41:30;;;;;;;;;6.25;4.00;;;;;8.12;74.38;101956.28;5080767;27;45439;-80
2022/11/27 03:44:01;;;;;;;;;4.75;2.00;;;;;8.13;74.18;101958.00;5098457;27;45517;-80
2022/11/27 03:46:51;;;;;;;;;8.25;4.00;;;;;8.14;74.40;101952.81;5099034;27;45418;-80
2022/11/27 03:49:38;;;;;;;;;5.75;3.00;;;;;8.17;74.71;101948.50;5015620;28;45575;-80
2022/11/27 03:52:22;;;;;;;;;5.75;4.50;;;;;8.17;74.36;101945.91;4998774;28;45494;-80
2022/11/27 03:55:01;;;;;;;;;4.50;2.00;;;;;8.18;74.31;101947.66;4999263;28;45382;-80
2022/11/27 03:57:40;;;;;;;;;5.00;5.00;;;;;8.16;74.10;101955.41;5016125;28;45453;-80
2022/11/27 04:00:07;;;;;;;;;4.50;4.00;;;;;8.13;73.96;101955.41;5015736;28;45808;-80
2022/11/27 04:02:47;;;;;;;;;6.00;4.50;;;;;8.10;74.18;101945.91;4998824;28;45749;-80
2022/11/27 04:05:13;;;;;;;;;5.50;3.50;;;;;8.14;74.17;101958.00;4999205;28;45477;-80
2022/11/27 04:07:39;;;;;;;;;4.75;4.00;;;;;8.14;74.32;101959.75;5015356;28;45492;-80
2022/11/27 04:10:05;;;;;;;;;4.25;4.00;;;;;8.06;74.37;101939.00;5015510;28;45955;-80
2022/11/27 04:12:30;;;;;;;;;6.00;2.00;;;;;8.11;74.34;101942.44;5015104;28;45536;-80
2022/11/27 04:14:56;;;;;;;;;3.75;2.75;;;;;8.14;74.20;101951.97;5014951;28;61705;-80
2022/11/27 04:17:21;;;;;;;;;5.25;1.75;;;;;8.08;74.68;101942.44;4998125;28;66418;-79
2022/11/27 04:19:46;;;;;;;;;6.00;6.00;;;;;8.09;74.42;101941.56;5015417;28;46441;-80
2022/11/27 04:22:12;;;;;;;;;4.25;3.50;;;;;8.10;74.71;101948.50;5014008;28;56663;-78
2022/11/27 04:24:37;;;;;;;;;5.25;3.50;;;;;8.11;75.14;101936.38;4998170;28;58590;-78
2022/11/27 04:27:02;;;;;;;;;3.75;2.00;;;;;8.09;75.25;101944.16;5078673;27;59606;-78
2022/11/27 04:29:28;;;;;;;;;5.50;3.25;;;;;8.09;75.70;101941.56;5079597;27;56357;-78
2022/11/27 04:31:53;;;;;;;;;8.25;4.00;;;;;8.06;75.16;101919.94;5097955;27;45411;-78
2022/11/27 04:34:18;;;;;;;;;5.00;4.00;;;;;8.12;75.65;101925.16;5097632;27;58873;-78
2022/11/27 04:36:45;;;;;;;;;7.50;4.25;;;;;8.12;75.66;101925.16;5079470;27;45354;-78
2022/11/27 04:39:12;;;;;;;;;5.25;4.00;;;;;8.15;75.27;101917.38;5098128;27;46489;-78
2022/11/27 04:41:37;;;;;;;;;7.25;3.50;;;;;8.13;75.49;101900.94;5097630;27;45711;-78
2022/11/27 04:44:02;;;;;;;;;2.75;2.75;;;;;8.16;75.54;101908.72;5079904;27;45738;-79
2022/11/27 04:46:28;;;;;;;;;4.25;2.00;;;;;8.06;75.07;101892.31;5098068;27;45384;-79
2022/11/27 04:48:53;;;;;;;;;8.00;4.00;;;;;8.11;76.02;101893.16;5096964;27;72291;-78
2022/11/27 04:51:18;;;;;;;;;5.00;3.00;;;;;8.11;75.66;101877.59;5097456;27;45399;-79
2022/11/27 04:53:44;;;;;;;;;5.25;3.00;;;;;8.15;75.60;101881.06;5097285;27;58093;-78
2022/11/27 04:56:09;;;;;;;;;7.00;4.00;;;;;8.23;75.74;101886.25;5097062;27;66910;-79
2022/11/27 04:58:34;;;;;;;;;11.50;3.50;;;;;8.28;75.36;101884.50;5097629;27;46263;-79
2022/11/27 05:01:00;;;;;;;;;5.25;4.00;;;;;8.22;75.30;101861.19;5097753;27;45409;-78
2022/11/27 05:03:25;;;;;;;;;4.50;4.00;;;;;8.28;75.23;101879.31;5096505;27;45238;-78
2022/11/27 05:05:57;;;;;;;;;7.00;5.50;;;;;8.25;75.67;101876.75;5096849;27;56517;-79
2022/11/27 05:08:23;;;;;;;;;9.25;4.00;;;;;8.30;75.24;101875.88;5080641;27;46520;-78
2022/11/27 05:11:04;;;;;;;;;8.00;4.00;;;;;8.27;75.21;101867.22;5077122;28;45388;-79
2022/11/27 05:13:30;;;;;;;;;8.75;5.00;;;;;8.28;75.22;101872.41;5077090;28;45375;-78
2022/11/27 05:15:55;;;;;;;;;6.50;4.00;;;;;8.21;75.22;101859.44;5059097;28;45836;-79
2022/11/27 05:18:20;;;;;;;;;6.00;1.50;;;;;8.13;75.50;101849.06;5077063;28;46172;-79
2022/11/27 05:20:46;;;;;;;;;7.50;4.50;;;;;8.14;75.40;101862.03;5075864;28;61552;-78
2022/11/27 05:23:11;;;;;;;;;10.00;4.25;;;;;8.14;75.21;101859.44;5057942;28;64967;-79
2022/11/27 05:25:36;;;;;;;;;4.75;4.00;;;;;8.11;75.46;101862.03;5076541;28;54162;-79
2022/11/27 05:28:02;;;;;;;;;7.00;4.75;;;;;8.09;75.68;101857.72;5075995;28;70005;-78
2022/11/27 05:30:27;;;;;;;;;5.50;4.00;;;;;8.11;75.65;101874.16;5076672;28;45565;-79
2022/11/27 05:32:53;;;;;;;;;9.00;5.00;;;;;8.09;75.37;101875.88;5057769;28;61376;-79
2022/11/27 05:35:18;;;;;;;;;8.75;5.25;;;;;8.06;75.70;101870.69;5076557;28;45388;-80
2022/11/27 05:37:43;;;;;;;;;8.25;5.00;;;;;8.07;76.03;101864.66;5075831;28;70401;-80
2022/11/27 05:40:09;;;;;;;;;4.75;4.00;;;;;8.06;75.67;101850.81;5076429;27;54613;-80
2022/11/27 05:42:34;;;;;;;;;4.50;4.25;;;;;8.06;76.02;101843.03;5076564;28;45457;-80
2022/11/27 05:45:00;;;;;;;;;8.25;3.00;;;;;8.09;76.04;101845.63;5075919;28;45502;-80
2022/11/27 05:47:25;;;;;;;;;5.00;4.00;;;;;8.06;75.89;101849.94;5076468;28;46395;-80
2022/11/27 05:49:50;;;;;;;;;5.00;3.00;;;;;8.07;76.33;101849.94;5057754;28;58192;-80
2022/11/27 05:52:16;;;;;;;;;5.00;4.75;;;;;8.03;76.26;101848.22;5075582;28;63960;-80
2022/11/27 05:54:41;;;;;;;;;4.00;4.00;;;;;8.04;75.91;101846.47;5075138;28;63871;-80
2022/11/27 05:57:06;;;;;;;;;5.00;4.00;;;;;8.03;76.03;101840.44;5075386;28;72070;-80
2022/11/27 05:59:31;;;;;;;;;4.00;4.00;;;;;8.00;76.39;101839.56;5057364;28;70867;-80
2022/11/27 06:01:57;;;;;;;;;13.75;4.75;;;;;8.01;76.11;101834.41;5075401;28;60982;-80
2022/11/27 06:04:22;;;;;;;;;4.50;4.50;;;;;8.06;76.15;101844.75;5075678;28;65008;-80
2022/11/27 06:06:47;;;;;;;;;5.00;5.00;;;;;8.02;76.50;101833.50;5078694;27;68053;-80
2022/11/27 06:09:13;;;;;;;;;3.25;2.00;;;;;8.03;76.24;101837.84;5077634;27;67483;-80
2022/11/27 06:11:38;;;;;;;;;4.50;4.25;;;;;8.04;76.56;101838.69;5096587;27;45436;-80
2022/11/27 06:14:07;;;;;;;;;7.50;3.50;;;;;8.09;76.58;101847.34;5077395;27;70338;-80
2022/11/27 06:16:32;;;;;;;;;6.00;4.00;;;;;8.08;75.96;101843.91;5096121;27;47259;-80
2022/11/27 06:18:58;;;;;;;;;4.75;4.00;;;;;8.10;76.43;101830.94;5096713;27;45529;-80
2022/11/27 06:21:23;;;;;;;;;5.00;5.00;;;;;8.15;76.64;101839.56;5095385;27;59787;-80
2022/11/27 06:23:52;;;;;;;;;6.00;4.75;;;;;8.17;76.29;101834.38;5096493;27;45331;-80
2022/11/27 06:26:23;;;;;;;;;2.00;2.00;;;;;8.21;76.54;101834.38;5078363;27;45329;-80
2022/11/27 06:28:49;;;;;;;;;3.75;2.50;;;;;8.17;76.29;101819.66;5078336;27;45770;-80
2022/11/27 06:31:19;;;;;;;;;6.50;4.75;;;;;8.21;76.24;101811.03;5096048;27;45467;-80
2022/11/27 06:33:46;;;;;;;;;6.25;4.00;;;;;8.25;76.32;101814.50;5078251;27;45428;-80
2022/11/27 06:36:11;;;;;;;;;10.00;4.00;;;;;8.24;76.10;101805.81;5096298;27;46622;-80
2022/11/27 06:38:37;;;;;;;;;4.00;4.00;;;;;8.23;75.99;101801.53;5096373;27;45360;-80
2022/11/27 06:41:05;;;;;;;;;10.00;6.25;;;;;8.29;75.84;101811.00;5095772;27;45407;-80
2022/11/27 06:43:30;;;;;;;;;8.00;4.50;;;;;8.22;75.81;101801.53;5078101;27;45536;-79
2022/11/27 06:45:59;;;;;;;;;4.75;4.25;;;;;8.16;75.66;101799.81;5098623;27;45400;-80
2022/11/27 06:48:25;;;;;;;;;6.00;3.75;;;;;8.21;76.15;101800.66;5100335;27;45389;-80
2022/11/27 06:50:50;;;;;;;;;4.00;2.00;;;;;8.22;76.25;101797.19;5099805;27;60068;-80
2022/11/27 06:53:15;;;;;;;;;4.75;2.00;;;;;8.13;75.89;101786.81;5099840;27;45653;-80
2022/11/27 06:55:41;;;;;;;;;5.00;4.00;;;;;8.20;76.04;101785.09;5099080;27;67943;-79
2022/11/27 06:58:06;;;;;;;;;6.00;3.75;;;;;8.16;76.08;101780.78;5098704;27;66550;-79
2022/11/27 07:00:31;;;;;;;;;12.25;5.75;;;;;8.20;76.17;101800.66;5098301;27;61927;-80
2022/11/27 07:02:57;;;;;;;;;4.75;4.00;;;;;8.12;76.33;101791.16;5098822;27;45618;-79
2022/11/27 07:05:23;;;;;;;;;8.00;4.25;;;;;8.11;76.75;101792.00;5079711;27;68611;-79
2022/11/27 07:07:48;;;;;;;;;5.50;4.00;;;;;8.16;76.47;101789.44;5102004;27;55492;-80
2022/11/27 07:10:13;;;;;;;;;8.00;2.00;;;;;8.19;76.74;101801.50;5101550;27;45380;-80
2022/11/27 07:12:39;;;;;;;;;4.25;3.50;;;;;8.21;77.01;101785.09;5099358;27;45418;-80
2022/11/27 07:15:05;;;;;;;;;6.00;2.00;;;;;8.26;77.02;101791.13;5079940;27;71762;-80
2022/11/27 07:17:30;;;;;;;;;11.50;5.50;;;;;8.31;76.98;101799.75;5099656;27;45500;-80
2022/11/27 07:19:55;;;;;;;;;7.50;4.50;;;;;8.34;76.76;101798.91;5098373;27;67597;-80
2022/11/27 07:22:20;;;;;;;;;5.50;4.75;;;;;8.31;76.48;101799.75;5080079;27;69731;-79
2022/11/27 07:24:46;;;;;;;;;7.50;5.00;;;;;8.28;76.82;101804.97;5098307;27;75447;-80
2022/11/27 07:27:11;;;;;;;;;5.00;3.50;;;;;8.25;76.97;101797.19;5099288;27;45356;-80
2022/11/27 07:29:36;;;;;;;;;5.25;4.00;;;;;8.30;77.05;101797.16;5080414;27;55309;-80
2022/11/27 07:32:02;;;;;;;;;5.25;5.25;;;;;8.28;77.53;101794.59;5098382;27;64025;-80
2022/11/27 07:34:27;;;;;;;;;9.50;3.50;;;;;8.29;77.52;101785.06;5079918;27;71796;-80
2022/11/27 07:36:52;;;;;;;;;5.50;4.50;;;;;8.23;77.34;101780.78;5080015;27;67734;-80
2022/11/27 07:39:18;;;;;;;;;11.75;4.75;;;;;8.26;77.13;101787.66;5098838;27;47366;-80
2022/11/27 07:41:43;;;;;;;;;7.00;4.50;;;;;8.20;77.22;101782.50;5099208;27;45446;-80
2022/11/27 07:44:09;;;;;;;;;4.75;4.75;;;;;8.21;77.43;101795.47;5097958;27;73654;-80
2022/11/27 07:46:34;;;;;;;;;5.25;4.00;;;;;8.13;77.65;101773.88;5098798;27;45361;-80
2022/11/27 07:49:00;;;;;;;;;4.75;4.75;;;;;8.21;77.88;101777.31;5098156;27;61488;-79
2022/11/27 07:51:25;;;;;;;;;9.75;5.00;;;;;8.21;77.99;101782.50;5099052;27;45386;-80
2022/11/27 07:53:51;;;;;;;;;8.00;5.75;;;;;8.21;77.68;101786.81;5098777;27;45408;-80
2022/11/27 07:56:16;;;;;;;;;9.25;4.75;;;;;8.18;77.83;101787.69;5098769;27;45382;-80
2022/11/27 07:58:42;;;;;;;;;6.00;3.50;;;;;8.22;78.15;101796.31;5098385;27;45410;-80
2022/11/27 08:01:10;;;;;;;;;6.50;6.00;;;;;8.14;78.30;101789.44;5080574;27;45436;-80
2022/11/27 08:03:36;;;;;;;;;7.50;5.25;;;;;8.16;78.32;101791.16;5098678;27;46358;-80
2022/11/27 08:06:02;;;;;;;;;8.25;6.00;;;;;8.18;78.28;101795.47;5097993;27;45417;-80
2022/11/27 08:08:28;;;;;;;;;8.50;6.00;;;;;8.25;78.36;101796.34;5063200;27;45380;-79
2022/11/27 08:10:53;;;;;;;;;5.75;5.75;;;;;8.17;78.49;101780.75;5099061;27;45288;-79
2022/11/27 08:13:18;;;;;;;;;5.25;2.50;;;;;8.18;78.15;101777.31;5079090;27;75282;-79
2022/11/27 08:15:44;;;;;;;;;5.00;4.00;;;;;8.22;78.44;101780.78;5098032;27;65107;-79
2022/11/27 08:18:10;;;;;;;;;9.00;4.00;;;;;8.22;78.79;101784.22;5098724;27;45418;-79
2022/11/27 08:20:36;;;;;;;;;7.50;5.00;;;;;8.17;78.43;101767.78;5080182;27;46374;-80
2022/11/27 08:23:01;;;;;;;;;9.75;5.50;;;;;8.19;78.28;101770.38;5097854;27;45586;-80
2022/11/27 08:25:27;;;;;;;;;6.50;4.25;;;;;8.10;78.93;101756.59;5097470;27;73194;-82
2022/11/27 08:27:54;;;;;;;;;5.25;5.00;;;;;8.17;78.79;101753.97;5097226;27;69081;-87
2022/11/27 08:30:22;;;;;;;;;10.00;5.50;;;;;8.19;79.36;101749.63;5078998;27;45600;-79
2022/11/27 08:32:48;;;;;;;;;8.00;5.00;;;;;8.23;78.88;101738.41;5097080;27;46226;-80
2022/11/27 08:35:13;;;;;;;;;6.00;5.00;;;;;8.25;78.92;101742.72;5096462;27;70274;-80
2022/11/27 08:37:38;;;;;;;;;10.25;5.25;;;;;8.28;78.37;101741.84;5096662;27;45635;-80
2022/11/27 08:40:06;;;;;;;;;8.75;6.00;;;;;8.23;78.63;101736.69;5092463;27;45452;-81
2022/11/27 08:42:31;;;;;;;;;8.25;5.00;;;;;8.32;79.12;101744.44;5096664;27;46765;-79
2022/11/27 08:44:56;;;;;;;;;5.50;5.50;;;;;8.40;78.99;101744.41;5097467;27;45303;-81
2022/11/27 08:47:22;;;;;;;;;8.75;5.00;;;;;8.45;78.74;101736.59;5079262;27;45443;-80
2022/11/27 08:49:47;;;;;;;;;4.00;3.50;;;;;8.43;78.38;101730.56;5091550;27;62102;-81
2022/11/27 08:52:13;;;;;;;;;4.50;4.50;;;;;8.49;78.63;101734.00;5078705;27;45465;-80
2022/11/27 08:54:38;;;;;;;;;8.00;5.00;;;;;8.47;78.36;101720.19;5078249;27;66537;-80
2022/11/27 08:57:03;;;;;;;;;6.25;5.00;;;;;8.58;78.18;101727.03;5095945;27;55052;-80
2022/11/27 08:59:29;;;;;;;;;9.75;5.00;;;;;8.58;78.33;101717.53;5085803;27;64981;-80
2022/11/27 09:01:54;;;;;;;;;5.00;5.00;;;;;8.62;79.02;101719.25;5096394;27;65529;-80
2022/11/27 09:04:19;;;;;;;;;8.50;5.25;;;;;8.63;77.85;101713.16;5083384;27;70442;-80
2022/11/27 09:06:46;;;;;;;;;5.25;5.00;;;;;8.65;78.51;101695.84;5095478;27;63515;-80
2022/11/27 09:09:11;;;;;;;;;10.00;5.25;;;;;8.64;78.33;101686.34;5079082;27;46974;-81
2022/11/27 09:11:37;;;;;;;;;6.00;3.00;;;;;8.71;78.66;101689.75;5097295;27;46024;-79
2022/11/27 09:14:03;;;;;;;;;5.50;5.50;;;;;8.71;78.47;101676.78;5096537;27;72219;-81
2022/11/27 09:16:29;;;;;;;;;13.00;8.00;;;;;8.74;78.32;101687.16;5093410;27;45469;-79
2022/11/27 09:18:55;;;;;;;;;5.00;4.75;;;;;8.81;78.72;101690.59;5097233;27;45360;-80
2022/11/27 09:21:23;;;;;;;;;3.25;2.00;;;;;8.83;77.51;101688.84;5096828;27;45853;-81
2022/11/27 09:23:52;;;;;;;;;6.50;6.50;;;;;8.82;78.26;101679.31;5074572;27;45930;-81
2022/11/27 09:26:18;;;;;;;;;9.00;5.00;;;;;8.95;78.37;101690.47;5078938;27;45403;-81
2022/11/27 09:28:44;;;;;;;;;6.25;6.00;;;;;8.98;78.28;101693.94;5094914;27;69236;-81
2022/11/27 09:31:12;;;;;;;;;7.00;5.75;;;;;9.02;78.65;101684.38;5091242;27;47398;-82
2022/11/27 09:33:39;;;;;;;;;6.00;5.00;;;;;9.04;77.58;101673.09;5078852;27;46168;-79
2022/11/27 09:36:06;;;;;;;;;9.00;6.25;;;;;9.01;77.85;101659.31;5064062;27;46791;-81
2022/11/27 09:38:31;;;;;;;;;11.75;8.50;;;;;9.05;77.56;101663.59;5076933;27;45428;-80
2022/11/27 09:41:02;;;;;;;;;7.00;7.00;;;;;9.09;77.80;101655.75;5074592;27;73465;-80
2022/11/27 09:43:30;;;;;;;;;10.50;5.00;;;;;9.09;77.50;101639.31;5058557;28;45464;-81
2022/11/27 09:46:00;;;;;;;;;6.50;5.00;;;;;9.18;77.86;101634.03;5059577;28;45353;-81
2022/11/27 09:48:38;;;;;;;;;8.25;5.50;;;;;9.25;77.50;101630.50;5072946;27;45266;-81
2022/11/27 09:51:10;;;;;;;;;8.50;6.50;;;;;9.32;77.33;101636.50;5078813;27;46416;-83
2022/11/27 09:53:45;;;;;;;;;5.75;5.75;;;;;9.37;76.86;101632.13;5078444;27;45320;-80
2022/11/27 09:56:14;;;;;;;;;10.00;5.25;;;;;9.40;77.45;101628.66;5087430;27;45503;-80
2022/11/27 09:58:48;;;;;;;;;8.50;5.50;;;;;9.44;76.48;101632.94;5058215;28;45590;-80
2022/11/27 10:01:16;;;;;;;;;7.00;4.00;;;;;9.43;76.84;101637.25;5057989;28;46861;-81
2022/11/27 10:03:42;;;;;;;;;6.25;3.00;;;;;9.39;75.88;101634.72;5058389;28;45495;-80
2022/11/27 10:06:27;;;;;;;;;10.00;6.00;;;;;9.27;75.51;101631.34;5058410;28;45420;-81
2022/11/27 10:09:05;;;;;;;;;7.75;6.00;;;;;9.26;76.14;101641.75;5076187;28;45674;-80
2022/11/27 10:11:33;;;;;;;;;6.00;4.00;;;;;9.18;76.21;101644.44;5075999;28;47116;-80
2022/11/27 10:14:20;;;;;;;;;9.25;7.75;;;;;9.18;75.66;101648.78;5096845;27;45338;-80
2022/11/27 10:17:06;;;;;;;;;6.50;5.75;;;;;9.15;75.79;101634.06;5078335;27;45300;-80
2022/11/27 10:20:22;;;;;;;;;10.25;5.00;;;;;9.14;75.77;101650.53;5096662;27;45386;-80
2022/11/27 10:23:04;;;;;;;;;6.25;2.75;;;;;9.08;76.25;101642.75;5012476;28;46143;-80
2022/11/27 10:25:36;;;;;;;;;9.50;6.00;;;;;9.15;76.25;101648.78;5013699;28;45758;-80
2022/11/27 10:28:30;;;;;;;;;4.00;4.00;;;;;9.14;76.20;101645.34;5013805;28;45399;-80
2022/11/27 10:31:09;;;;;;;;;9.50;5.25;;;;;9.13;76.52;101632.34;4954433;28;45621;-80
2022/11/27 10:33:40;;;;;;;;;10.25;8.00;;;;;9.14;76.38;101639.25;4954618;28;47408;-80
2022/11/27 10:36:29;;;;;;;;;9.25;6.75;;;;;9.19;76.88;101629.69;4938632;28;45409;-80
2022/11/27 10:38:56;;;;;;;;;9.00;6.50;;;;;9.20;76.59;101626.25;4938558;28;45403;-80
2022/11/27 10:41:28;;;;;;;;;6.75;5.50;;;;;9.27;77.46;101623.56;4953378;28;69947;-80
2022/11/27 10:43:55;;;;;;;;;11.50;6.25;;;;;9.32;76.80;101625.25;4938764;28;45499;-79
2022/11/27 10:46:27;;;;;;;;;9.75;5.50;;;;;9.36;77.17;101626.94;4954434;28;45348;-80
2022/11/27 10:48:52;;;;;;;;;8.00;6.25;;;;;9.36;76.65;101630.41;4954851;28;45443;-80
2022/11/27 10:51:22;;;;;;;;;10.25;5.00;;;;;9.39;76.87;101625.16;4954615;28;45579;-80
2022/11/27 10:53:51;;;;;;;;;12.25;6.75;;;;;9.43;76.79;101607.81;4989008;28;45473;-80
2022/11/27 10:56:16;;;;;;;;;7.75;6.00;;;;;9.47;76.87;101604.28;4996766;28;45461;-80
2022/11/27 10:58:55;;;;;;;;;8.00;7.00;;;;;9.49;76.87;101597.38;5013638;28;45454;-80
2022/11/27 11:01:21;;;;;;;;;8.50;6.00;;;;;9.49;76.76;101594.78;4997050;28;45468;-80
2022/11/27 11:03:47;;;;;;;;;6.50;5.25;;;;;9.45;76.21;101591.34;4996909;28;45470;-80
2022/11/27 11:06:18;;;;;;;;;7.50;5.75;;;;;9.47;76.34;101593.91;4996969;28;45476;-80
2022/11/27 11:08:44;;;;;;;;;6.75;5.00;;;;;9.48;76.08;101598.25;5049853;28;45511;-80
2022/11/27 11:11:09;;;;;;;;;7.00;5.25;;;;;9.52;76.25;101597.31;5057218;28;57848;-80
2022/11/27 11:13:45;;;;;;;;;9.75;6.00;;;;;9.50;76.36;101579.13;5057447;28;47085;-80
2022/11/27 11:16:10;;;;;;;;;8.25;7.00;;;;;9.55;76.29;101580.84;5075864;28;45402;-80
2022/11/27 11:18:53;;;;;;;;;14.67;9.00;;;;;9.54;75.87;101569.56;5075979;28;45444;-80
2022/11/27 11:21:26;;;;;;;;;13.00;9.00;;;;;9.50;75.98;101563.53;5057059;28;45639;-79
2022/11/27 11:23:57;;;;;;;;;12.00;9.50;;;;;9.47;76.01;101544.53;5057465;28;46625;-80
2022/11/27 11:26:26;;;;;;;;;10.00;6.75;;;;;9.53;76.18;101539.28;5057558;28;45873;-80
2022/11/27 11:28:57;;;;;;;;;11.50;7.00;;;;;9.60;76.65;101548.72;5057709;28;45494;-80
2022/11/27 11:31:34;;;;;;;;;9.00;8.50;;;;;9.66;76.15;101551.25;5057442;28;45550;-80
2022/11/27 11:34:24;;;;;;;;;9.25;8.25;;;;;9.73;76.40;101543.34;5075596;28;46238;-79
2022/11/27 11:36:57;;;;;;;;;14.00;7.00;;;;;9.75;76.27;101539.00;5046897;28;45770;-80
2022/11/27 11:39:25;;;;;;;;;11.00;8.00;;;;;9.76;75.76;101533.78;5057439;28;45351;-80